• Join FlightAware (Why Join?)
  • Login
  • US Flag 
08:24PM EST


 

Airport Tracker/Info


-or-


 

Live Flight TrackerFlight Track Log ✈ N971DS ✈ 17-Aug-2014 ✈ KBED - KTTN

Flight Track Log - Related Links

Times and Time Zones

All times are in EDT time to prevent confusion due to time zone crossing. See the N971DS flight status page for this flight to view local times or setup timezone preferences in your user account.

Time Position Orientation Groundspeed Altitude Reporting Facility
EDT Latitude Longitude Course Direction KTS MPH feet Rate Location/Type
01:08PM 42.4667 -71.3000 216° Southwest 77 89 900  Level KA90
01:09PM 42.4667 -71.3333 270° West 86 99 1,600 824 Climbing KA90
01:10PM 42.4533 -71.3497 222° Southwest 86 99 2,300 826 Climbing Boston Center
01:11PM 42.4289 -71.3636 203° Southwest 92 106 3,100 774 Climbing Boston Center
01:12PM 42.4031 -71.3811 207° Southwest 96 110 3,900 488 Climbing Boston Center
01:13PM 42.3753 -71.4011 208° Southwest 111 128 4,100 98 Climbing Boston Center
01:14PM 42.3259 -71.4407 216° Southwest  Level FlightAware Approximate
01:14PM 42.3419 -71.4239 207° Southwest 121 139 4,100  Level Boston Center
01:15PM 42.3169 -71.4406 206° Southwest 124 143 4,400 387 Climbing Boston Center
01:15PM 42.3119 -71.4444 210° Southwest 121 139 4,500 537 Climbing Boston Center
01:16PM 42.2878 -71.4594 205° Southwest 111 128 5,000 661 Climbing Boston Center
01:17PM 42.2628 -71.4772 208° Southwest 96 110 5,700 686 Climbing Boston Center
01:17PM 42.2586 -71.4800 206° Southwest 104 120 5,800 358 Climbing Boston Center
01:18PM 42.2386 -71.4919 204° Southwest 96 110 6,100 290 Climbing Boston Center
01:18PM 42.2344 -71.4942 202° Southwest 94 108 6,100 -111 Level Boston Center
01:19PM 42.2108 -71.5144 212° Southwest 125 144 6,000  Descending Boston Center
01:19PM 42.2050 -71.5214 221° Southwest 116 133 6,100 88 Climbing Boston Center
01:20PM 42.2050 -71.5558 270° West 111 128 6,100 -97 Level Boston Center
01:20PM 42.2058 -71.5658 276° West 118 136 6,000 -100 Descending Boston Center
01:21PM 42.2053 -71.5994 269° West 110 127 6,000  Level Boston Center
01:21PM 42.2047 -71.6069 264° West 113 130 6,000  Level Boston Center
01:22PM 42.1992 -71.6436 258° West 113 130 6,000  Level Boston Center
01:22PM 42.1972 -71.6519 253° West 113 130 6,000  Level Boston Center
01:23PM 42.1869 -71.6856 248° West 118 136 6,000  Level Boston Center
01:23PM 42.1847 -71.6919 245° Southwest 114 131 6,000  Level Boston Center
01:24PM 42.1767 -71.7283 253° West 112 129 6,000  Level Boston Center
01:24PM 42.1747 -71.7347 248° West 114 131 6,000  Level Boston Center
01:25PM 42.1683 -71.7717 257° West 109 125 6,000  Level Boston Center
01:26PM 42.1561 -71.8136 249° West 116 133 6,000  Level Boston Center
01:27PM 42.1467 -71.8511 251° West 113 130 6,000  Level Boston Center
01:28PM 42.1339 -71.8958 249° West 114 131 6,000  Level Boston Center
01:29PM 42.1239 -71.9356 251° West 108 124 6,000  Level Boston Center
01:30PM 42.1156 -71.9775 255° West 109 125 6,000  Level Boston Center
01:31PM 42.1047 -72.0128 248° West 100 115 6,000  Level Boston Center
01:32PM 42.0900 -72.0453 239° Southwest 119 137 6,000  Level Boston Center
01:32PM 42.0869 -72.0508 233° Southwest 114 131 6,000  Level Boston Center
01:33PM 42.0633 -72.0706 212° Southwest 119 137 6,000  Level Boston Center
01:33PM 42.0581 -72.0778 225° Southwest 119 137 6,000  Level Boston Center
01:34PM 42.0381 -72.1022 222° Southwest 119 137 6,000  Level Boston Center
01:34PM 42.0336 -72.1069 218° Southwest 119 137 6,000  Level Boston Center
01:35PM 42.0156 -72.1289 222° Southwest 117 135 6,000  Level Boston Center
01:36PM 42.0067 -72.1389 220° Southwest 119 137 6,000  Level Boston Center
01:36PM 41.9906 -72.1578 221° Southwest 124 143 6,000  Level Boston Center
01:37PM 41.9817 -72.1686 222° Southwest 121 139 6,000  Level Boston Center
01:37PM 41.9656 -72.1867 220° Southwest 121 139 6,000  Level Boston Center
01:38PM 41.9564 -72.1972 221° Southwest 121 139 6,000  Level Boston Center
01:38PM 41.9375 -72.2200 222° Southwest 116 133 6,000  Level Boston Center
01:39PM 41.9303 -72.2269 216° Southwest 117 135 6,000  Level Boston Center
01:39PM 41.9133 -72.2433 216° Southwest 117 135 6,000  Level Boston Center
01:40PM 41.9053 -72.2547 226° Southwest 117 135 6,000  Level Boston Center
01:40PM 41.8906 -72.2728 222° Southwest 116 133 6,000  Level Boston Center
01:41PM 41.8786 -72.2856 219° Southwest 117 135 6,000  Level Boston Center
01:41PM 41.8633 -72.3008 217° Southwest 122 140 6,000  Level Boston Center
01:42PM 41.8519 -72.3147 222° Southwest 119 137 6,000  Level Boston Center
01:42PM 41.8383 -72.3294 219° Southwest 125 144 6,000  Level Boston Center
01:43PM 41.8239 -72.3461 221° Southwest 121 139 6,000  Level Boston Center
01:43PM 41.8133 -72.3581 220° Southwest 119 137 6,000  Level Boston Center
01:44PM 41.7989 -72.3728 217° Southwest 119 137 6,000  Level Boston Center
01:44PM 41.7914 -72.3819 222° Southwest 114 131 6,000  Level Boston Center
01:45PM 41.7731 -72.4019 219° Southwest 119 137 6,000  Level Boston Center
01:46PM 41.7500 -72.4278 220° Southwest 123 142 6,000  Level Boston Center
01:46PM 41.7447 -72.4331 217° Southwest 120 138 6,000  Level Boston Center
01:46PM 41.7367 -72.4403 214° Southwest 118 136 6,000  Level Boston Center
01:47PM 41.7203 -72.4603 222° Southwest 118 136 6,000  Level Boston Center
01:48PM 41.7028 -72.4803 220° Southwest 120 138 6,000  Level Boston Center
01:48PM 41.6931 -72.4917 221° Southwest 119 137 6,000  Level Boston Center
01:49PM 41.6758 -72.5081 215° Southwest 122 140 6,000  Level Boston Center
01:49PM 41.6664 -72.5203 224° Southwest 121 139 6,000  Level Boston Center
01:50PM 41.6389 -72.5483 217° Southwest 118 136 6,000  Level Boston Center
01:51PM 41.6039 -72.5647 199° South 133 153 6,000  Level Boston Center
01:52PM 41.5667 -72.5792 196° South 133 153 6,000  Level Boston Center
01:53PM 41.5331 -72.5942 198° South 130 150 6,000  Level Boston Center
01:54PM 41.4994 -72.6117 201° Southwest 131 151 6,000  Level Boston Center
01:55PM 41.4614 -72.6264 196° South 131 151 6,000  Level Boston Center
01:56PM 41.4272 -72.6414 198° South 130 150 6,000  Level Boston Center
01:57PM 41.3900 -72.6581 199° South 130 150 6,000  Level Boston Center
01:58PM 41.3561 -72.6742 200° South 130 150 6,000  Level Boston Center
01:59PM 41.3194 -72.6892 197° South 130 150 6,000  Level Boston Center
02:00PM 41.2922 -72.7131 213° Southwest 118 136 6,000  Level Boston Center
02:01PM 41.2708 -72.7367 220° Southwest 115 132 6,000  Level Boston Center
02:02PM 41.2406 -72.7686 218° Southwest 115 132 6,000  Level Boston Center
02:03PM 41.2133 -72.7942 215° Southwest 116 133 6,000  Level Boston Center
02:04PM 41.1878 -72.8214 219° Southwest 116 133 6,000  Level Boston Center
02:06PM 41.1619 -72.8486 218° Southwest 116 133 6,000  Level Boston Center
02:07PM 41.1347 -72.8750 216° Southwest 117 135 6,000  Level Boston Center
02:08PM 41.1022 -72.9092 218° Southwest 122 140 6,000  Level Boston Center
02:09PM 41.0761 -72.9358 218° Southwest 122 140 6,000  Level Boston Center
02:10PM 41.0503 -72.9614 217° Southwest 122 140 6,000  Level Boston Center
02:11PM 41.0250 -72.9883 219° Southwest 121 139 6,000  Level Boston Center
02:12PM 40.9989 -73.0150 218° Southwest 121 139 6,000  Level Boston Center
02:13PM 40.9725 -73.0403 216° Southwest 120 138 6,000  Level Boston Center
02:14PM 40.9419 -73.0719 218° Southwest 120 138 6,000  Level Boston Center
02:15PM 40.9153 -73.0992 218° Southwest 120 138 6,000  Level Boston Center
02:16PM 40.8886 -73.1250 216° Southwest 120 138 6,000  Level Boston Center
02:17PM 40.8858 -73.1636 265° West 115 132 6,000  Level Boston Center
02:18PM 40.8819 -73.2011 262° West 107 123 6,000  Level Boston Center
02:19PM 40.8767 -73.2389 260° West 106 122 6,000  Level Boston Center
02:20PM 40.8706 -73.2861 260° West 108 124 6,000  Level Boston Center
02:21PM 40.8650 -73.3269 260° West 108 124 6,000  Level Boston Center
02:22PM 40.8667 -73.3833 272° West 108 124 6,000  Level New York TRACON
02:23PM 40.8500 -73.4167 237° Southwest 107 123 6,000  Level New York TRACON
02:24PM 40.8500 -73.4500 270° West 110 127 6,000  Level New York TRACON
02:25PM 40.8500 -73.5000 270° West 113 130 6,000  Level New York TRACON
02:26PM 40.8333 -73.5333 237° Southwest 107 123 6,000  Level New York TRACON
02:27PM 40.8167 -73.5667 237° Southwest 121 139 6,000  Level New York TRACON
02:28PM 40.8000 -73.5833 217° Southwest 115 132 6,000  Level New York TRACON
02:29PM 40.7667 -73.6167 217° Southwest 110 127 6,000  Level New York TRACON
02:30PM 40.7500 -73.6500 237° Southwest 124 143 6,000  Level New York TRACON
02:31PM 40.7167 -73.6667 201° Southwest 120 138 6,000  Level New York TRACON
02:32PM 40.7000 -73.7000 237° Southwest 120 138 6,000  Level New York TRACON
02:33PM 40.6667 -73.7333 217° Southwest 120 138 6,000  Level New York TRACON
02:34PM 40.6500 -73.7667 237° Southwest 110 127 6,000  Level New York TRACON
02:35PM 40.6167 -73.7833 201° Southwest 104 120 6,000  Level New York TRACON
02:36PM 40.5833 -73.8167 217° Southwest 125 144 6,000  Level New York TRACON
02:37PM 40.5500 -73.8333 201° Southwest 125 144 6,000  Level New York TRACON
02:38PM 40.5167 -73.8500 201° Southwest 125 144 6,000 -250 Level New York TRACON
02:39PM 40.4833 -73.8833 217° Southwest 146 168 5,500 -571 Descending New York TRACON
02:40PM 40.4500 -73.9167 217° Southwest 142 163 4,800 -67 Descending New York TRACON
03:00PM 40.1833 -74.4667 285° West 110 127 4,100 -34 Descending Philadelphia TRACON
03:01PM 40.1766 -74.4127 294° West  Level FlightAware Approximate
03:01PM 40.1833 -74.5000 270° West 109 125 4,100  Level Philadelphia TRACON
03:02PM 40.1891 -74.4504 294° West  Level FlightAware Approximate
03:02PM 40.1833 -74.5333 270° West 108 124 4,100  Level Philadelphia TRACON
03:03PM 40.2000 -74.4884 270° West  Level FlightAware Approximate
03:03PM 40.2000 -74.5833 294° West 116 133 3,900  Level Philadelphia TRACON
03:04PM 40.2000 -74.5295 270° West  Level FlightAware Approximate
03:04PM 40.2000 -74.6167 270° West 124 143 3,400  Level Philadelphia TRACON
03:05PM 40.2040 -74.5699 285° West  Level FlightAware Approximate
03:05PM 40.2333 -74.6667 311° West 139 160 2,800  Level Philadelphia TRACON
03:06PM 40.2119 -74.6097 285° West  Level FlightAware Approximate
03:06PM 40.2500 -74.7000 303° West 140 161 2,000  Level Philadelphia TRACON
03:07PM 40.2833 -74.7333 323° Northwest 120 138 1,400 -400 Descending Philadelphia TRACON
03:08PM 40.3000 -74.7667 303° West 97 112 1,200 -350 Descending Philadelphia TRACON
03:09PM 40.3000 -74.7833 270° West 82 94 700 -500 Descending Philadelphia TRACON